Hovedside
METAR-TAF:

METAR-TAF

Lufthavner :

Sohag, Egypt

breddegrad: 26-20-25N, lengdegrad: 31-44-20E, høyde over havet: 70 m

Gjeldene værobservasjon

Denne rapporten ble laget for 46 minutter siden, klokken 20:00 UTC
Vind 4 kt fra Nordvest
Temperatur 34°C
Luftfuktighet 23%
Trykk 1004 hPa
Sikt 10 km eller mer
ingen skyer under 1500 m og ingen bygeskyer

METAR: HESG 042000Z 32004KT CAVOK 34/10 Q1004 NOSIG

Tid: 22:46 (20:46 UTC)

Varsel

Denne rapporten ble laget for 3 timer og 46 minutter siden, klokken 17:00 UTC
Varsel gyldig fra 04. klokken 18 UTC til 05. klokken 24 UTC
Vind 9 kt fra Nord-nordvest
Sikt 10 km eller mer
ingen skyer under 1500 m og ingen bygeskyer

TAF: HESG 041700Z 0418/0524 33009KT CAVOK

Værobservasjoner og værvarsel for over 4000 flyplasser (METAR- og TAF-rapporter).

Tilgjengelige stasjoner er representert av de røde og gule prikkene på kartet.

Hold musepekeren over prikken for å se navnet på stasjonen.

Klikk så for å se værobservasjoner og -varsler.

For å forandre kartet kan du klikke på den grønne knappen med svart kryss for å zoome inn, på den grønne knappen med strek for å zoome ut, eller på de grønne pilene for å se tilstøtende kart.


METAR-TAF: